Weather forecast for Butser Hill

United Kingdom, 240 m
N50.977, E-0.982


Sounding

Red line — air temperature ˚C.
Blue line — thermal bubble temperature ˚C.
Green line — dew point temperature ˚C.
Wind speed is in meters per second.

Table forecast

GFS 0.25˚ model

temp. wind gust humid. clouds prec. press. hpbl
Sun21 00:00 10 52.0 ne 2 3 70 0 0.0 1026 25
03:00 9 35.0 ne 3 3 67 0 0.0 1024 28
06:00 8 27.0 nne 3 3 74 0 0.0 1023 45
09:00 16 35.0 ne 3 5 63 0 0.0 1022 285
12:00 20 95.0 e 2 3 50 0 0.0 1020 792
15:00 20 152.0 sse 3 3 59 0 0.0 1018 795
18:00 16 162.0 sse 2 3 77 0 0.0 1016 81
21:00 11 98.0 e 2 2 87 0 0.0 1015 23
 
Mon22 00:00 9 75.0 ene 3 3 77 0 0.0 1013 41
03:00 8 76.0 ene 3 3 79 0 0.0 1010 51
06:00 9 74.0 ene 3 5 84 0 0.0 1009 120
09:00 16 107.0 ese 4 6 75 33 0.0 1007 372
12:00 18 129.0 se 5 7 66 54 0.0 1005 671
15:00 17 144.0 se 5 6 69 0 0.0 1003 521
18:00 15 120.0 ese 2 4 82 35 0.0 1002 194
21:00 12 95.0 e 2 3 91 96 0.0 1002 28
 
Tue23 00:00 12 61.0 ene 3 4 91 82 0.0 1001 55
03:00 11 74.0 ene 3 4 86 95 0.0 1000 76
06:00 10 81.0 e 4 8 89 83 0.0 999 169
09:00 16 105.0 ese 5 7 74 11 0.0 1000 397
12:00 19 112.0 ese 5 7 65 14 0.0 999 707
15:00 19 121.0 ese 5 6 65 78 0.0 999 725
18:00 16 118.0 ese 3 7 80 68 0.0 999 323
21:00 11 79.0 e 3 8 90 100 0.0 999 171
 
Wed24 00:00 10 71.0 ene 3 5 84 100 0.0 999 96
03:00 9 77.0 ene 3 3 92 91 0.0 998 63
06:00 10 70.0 ene 3 5 92 94 0.0 997 151
09:00 15 137.0 se 4 6 86 100 0.7 998 480
12:00 17 183.0 s 6 7 82 98 1.4 997 808
15:00 17 136.0 se 6 9 74 91 0.1 995 1003
18:00 12 210.0 ssw 9 13 93 93 2.9 995 669
21:00 7 215.0 sw 4 9 92 100 0.8 998 449
 
Thu25 00:00 7 161.0 sse 4 9 92 66 0.8 999 239
03:00 8 148.0 sse 6 12 93 5 0.3 999 514
06:00 9 144.0 se 6 12 92 7 0.9 998 649
09:00 12 138.0 se 8 12 81 2 0.0 998 848
12:00 11 138.0 se 10 16 90 51 1.8 996 1227
15:00 12 169.0 s 10 14 82 74 2.1 995 1239
18:00 10 192.0 ssw 8 13 88 80 3.3 997 955
21:00 9 209.0 ssw 9 15 89 100 0.6 999 1007
 

0.014 s